Time;durP1;ratioP1;P1;durP2;ratioP2;P2;SDS_P1;SDS_P2;PMS_P1;PMS_P2;Temp;Humidity;BMP_temperature;BMP_pressure;BME280_temperature;BME280_humidity;BME280_pressure;Samples;Min_cycle;Max_cycle;Signal;HPM_P1;HPM_P2
2022/09/11 00:01:32;;;;;;;3.28;2.13;;;;;;;;;;5041409;28;20126;-81
2022/09/11 00:03:57;;;;;;;3.28;2.42;;;;;;;;;;5041579;28;20059;-81
2022/09/11 00:06:25;;;;;;;5.68;2.53;;;;;;;;;;5075903;28;20032;-81
2022/09/11 00:08:59;;;;;;;3.55;2.60;;;;;;;;;;5057944;28;20031;-81
2022/09/11 00:11:25;;;;;;;3.08;2.33;;;;;;;;;;5076412;28;20056;-81
2022/09/11 00:13:53;;;;;;;3.03;2.58;;;;;;;;;;5059946;28;20023;-81
2022/09/11 00:16:40;;;;;;;3.33;2.58;;;;;;;;;;5057154;28;20085;-82
2022/09/11 00:19:09;;;;;;;3.45;2.30;;;;;;;;;;5075818;28;20472;-82
2022/09/11 00:21:35;;;;;;;2.40;2.05;;;;;;;;;;5057891;28;20028;-81
2022/09/11 00:24:01;;;;;;;3.42;2.40;;;;;;;;;;5054455;28;20049;-81
2022/09/11 00:26:26;;;;;;;2.80;2.38;;;;;;;;;;5055733;28;20029;-81
2022/09/11 00:28:52;;;;;;;3.92;2.60;;;;;;;;;;5021313;28;20029;-81
2022/09/11 00:31:23;;;;;;;3.72;2.50;;;;;;;;;;5037630;28;20036;-81
2022/09/11 00:33:50;;;;;;;2.72;2.28;;;;;;;;;;5055636;28;20434;-82
2022/09/11 00:36:18;;;;;;;3.22;2.33;;;;;;;;;;5039362;28;20017;-82
2022/09/11 00:38:45;;;;;;;2.83;2.22;;;;;;;;;;5021096;28;20021;-82
2022/09/11 00:41:16;;;;;;;5.18;2.50;;;;;;;;;;5055989;28;20032;-81
2022/09/11 00:44:15;;;;;;;2.47;2.28;;;;;;;;;;5059796;28;20024;-81
2022/09/11 00:46:43;;;;;;;2.42;2.22;;;;;;;;;;5026010;28;20602;-81
2022/09/11 00:49:15;;;;;;;2.55;2.35;;;;;;;;;;5055597;28;20032;-81
2022/09/11 00:51:43;;;;;;;3.00;2.55;;;;;;;;;;5037564;28;20021;-81
2022/09/11 00:54:11;;;;;;;3.03;2.63;;;;;;;;;;5037538;28;20110;-81
2022/09/11 00:56:36;;;;;;;2.33;1.90;;;;;;;;;;5055133;28;20481;-82
2022/09/11 00:59:03;;;;;;;5.72;2.13;;;;;;;;;;5037125;28;20102;-81
2022/09/11 01:01:28;;;;;;;2.17;1.95;;;;;;;;;;5037155;28;20025;-81
2022/09/11 01:03:54;;;;;;;2.22;2.03;;;;;;;;;;5037388;28;20136;-81
2022/09/11 01:06:21;;;;;;;2.33;2.05;;;;;;;;;;5054993;28;20150;-81
2022/09/11 01:08:47;;;;;;;2.13;1.92;;;;;;;;;;5036862;28;20107;-81
2022/09/11 01:11:18;;;;;;;2.50;2.30;;;;;;;;;;5054822;28;20060;-81
2022/09/11 01:13:55;;;;;;;4.00;2.35;;;;;;;;;;5054642;28;20032;-82
2022/09/11 01:16:29;;;;;;;4.32;2.13;;;;;;;;;;5036816;28;20091;-81
2022/09/11 01:19:12;;;;;;;2.65;2.10;;;;;;;;;;5037070;28;20053;-81
2022/09/11 01:21:40;;;;;;;2.60;2.40;;;;;;;;;;5036865;28;20024;-81
2022/09/11 01:24:16;;;;;;;2.05;1.85;;;;;;;;;;5070288;28;20048;-81
2022/09/11 01:27:17;;;;;;;2.58;2.00;;;;;;;;;;5039741;28;20472;-81
2022/09/11 01:29:54;;;;;;;4.28;2.47;;;;;;;;;;5074070;28;20043;-81
2022/09/11 01:32:34;;;;;;;2.85;2.15;;;;;;;;;;5056245;28;20067;-81
2022/09/11 01:35:11;;;;;;;2.13;1.92;;;;;;;;;;5056253;28;20024;-81
2022/09/11 01:37:49;;;;;;;3.78;2.25;;;;;;;;;;5056506;28;20103;-81
2022/09/11 01:40:22;;;;;;;3.00;2.10;;;;;;;;;;5056502;28;20111;-82
2022/09/11 01:42:48;;;;;;;2.10;1.90;;;;;;;;;;5056166;28;20115;-81
2022/09/11 01:45:15;;;;;;;2.15;1.95;;;;;;;;;;5039320;28;20032;-81
2022/09/11 01:47:41;;;;;;;2.10;1.90;;;;;;;;;;5056225;28;20408;-81
2022/09/11 01:50:08;;;;;;;2.30;2.00;;;;;;;;;;5056141;28;20033;-81
2022/09/11 01:53:01;;;;;;;2.30;2.10;;;;;;;;;;5056031;28;20370;-81
2022/09/11 01:55:36;;;;;;;2.22;1.80;;;;;;;;;;5068417;28;20025;-81
2022/09/11 01:58:12;;;;;;;2.97;1.83;;;;;;;;;;5056029;28;20027;-81
2022/09/11 02:00:38;;;;;;;2.85;1.98;;;;;;;;;;5055914;28;20048;-81
2022/09/11 02:03:19;;;;;;;2.20;1.92;;;;;;;;;;5074181;28;20115;-81
2022/09/11 02:05:50;;;;;;;2.97;1.70;;;;;;;;;;5073761;28;20035;-81
2022/09/11 02:08:24;;;;;;;2.00;1.80;;;;;;;;;;5055808;28;20024;-81
2022/09/11 02:10:52;;;;;;;1.83;1.73;;;;;;;;;;5055784;28;20036;-81
2022/09/11 02:13:29;;;;;;;1.73;1.63;;;;;;;;;;5055676;28;20101;-81
2022/09/11 02:16:03;;;;;;;1.98;1.77;;;;;;;;;;5055661;28;20017;-81
2022/09/11 02:18:47;;;;;;;2.97;1.88;;;;;;;;;;5055696;28;20036;-81
2022/09/11 02:21:12;;;;;;;3.30;2.08;;;;;;;;;;5055801;28;20039;-81
2022/09/11 02:23:38;;;;;;;2.03;1.80;;;;;;;;;;5038740;28;20052;-81
2022/09/11 02:26:05;;;;;;;2.53;2.00;;;;;;;;;;5055324;28;20056;-81
2022/09/11 02:28:30;;;;;;;2.08;1.92;;;;;;;;;;5055874;28;20491;-81
2022/09/11 02:30:56;;;;;;;1.90;1.70;;;;;;;;;;5055673;28;20111;-81
2022/09/11 02:33:32;;;;;;;2.63;2.00;;;;;;;;;;5055521;28;20361;-82
2022/09/11 02:36:11;;;;;;;2.00;1.80;;;;;;;;;;5073217;28;20013;-82
2022/09/11 02:39:06;;;;;;;2.10;1.88;;;;;;;;;;5055825;28;20028;-82
2022/09/11 02:41:55;;;;;;;1.75;1.65;;;;;;;;;;5058509;28;20032;-82
2022/09/11 02:44:40;;;;;;;1.90;1.70;;;;;;;;;;5073109;28;20415;-82
2022/09/11 02:47:09;;;;;;;1.88;1.77;;;;;;;;;;5073167;28;20036;-81
2022/09/11 02:49:37;;;;;;;2.00;1.80;;;;;;;;;;5055065;28;20028;-82
2022/09/11 02:52:22;;;;;;;2.63;1.90;;;;;;;;;;5055074;28;20065;-82
2022/09/11 02:55:12;;;;;;;1.70;1.60;;;;;;;;;;5073535;28;20016;-81
2022/09/11 02:57:45;;;;;;;1.83;1.73;;;;;;;;;;5055071;28;20021;-81
2022/09/11 03:00:12;;;;;;;1.88;1.77;;;;;;;;;;5055088;28;20057;-81
2022/09/11 03:02:40;;;;;;;2.10;1.90;;;;;;;;;;5073126;28;20040;-81
2022/09/11 03:05:06;;;;;;;5.00;2.20;;;;;;;;;;5038331;28;20035;-82
2022/09/11 03:07:32;;;;;;;2.08;1.98;;;;;;;;;;5054942;28;20020;-81
2022/09/11 03:09:57;;;;;;;2.15;1.95;;;;;;;;;;5072873;28;20036;-82
2022/09/11 03:12:22;;;;;;;2.08;1.73;;;;;;;;;;5038424;28;20036;-82
2022/09/11 03:14:48;;;;;;;2.28;1.65;;;;;;;;;;5055975;28;20396;-82
2022/09/11 03:17:13;;;;;;;3.63;1.90;;;;;;;;;;5038731;28;20028;-82
2022/09/11 03:19:39;;;;;;;5.13;1.75;;;;;;;;;;5073925;28;20071;-82
2022/09/11 03:22:04;;;;;;;2.28;1.80;;;;;;;;;;5073447;28;20451;-82
2022/09/11 03:24:29;;;;;;;2.50;1.92;;;;;;;;;;5054448;28;20052;-82
2022/09/11 03:26:55;;;;;;;2.22;2.00;;;;;;;;;;5038351;28;20039;-83
2022/09/11 03:29:20;;;;;;;2.45;1.73;;;;;;;;;;5038160;28;20056;-82
2022/09/11 03:31:46;;;;;;;2.15;1.90;;;;;;;;;;5055017;28;20032;-82
2022/09/11 03:34:11;;;;;;;2.08;1.80;;;;;;;;;;5074072;28;20032;-83
2022/09/11 03:36:37;;;;;;;3.80;1.90;;;;;;;;;;5056712;28;20025;-82
2022/09/11 03:39:02;;;;;;;1.95;1.63;;;;;;;;;;5038631;28;20484;-82
2022/09/11 03:41:28;;;;;;;1.70;1.55;;;;;;;;;;5055092;28;20115;-81
2022/09/11 03:43:53;;;;;;;1.85;1.70;;;;;;;;;;5073091;28;20055;-80
2022/09/11 03:46:19;;;;;;;4.60;1.90;;;;;;;;;;5037958;28;20546;-81
2022/09/11 03:48:47;;;;;;;1.88;1.67;;;;;;;;;;5038156;28;20040;-82
2022/09/11 03:51:16;;;;;;;2.10;1.90;;;;;;;;;;5039389;28;20112;-82
2022/09/11 03:53:43;;;;;;;1.92;1.75;;;;;;;;;;5058107;28;20029;-82
2022/09/11 03:56:09;;;;;;;3.20;1.70;;;;;;;;;;5042383;28;20513;-82
2022/09/11 03:58:34;;;;;;;1.80;1.70;;;;;;;;;;5075060;28;20031;-81
2022/09/11 04:01:00;;;;;;;2.22;1.85;;;;;;;;;;5041594;28;20033;-82
2022/09/11 04:03:26;;;;;;;1.80;1.70;;;;;;;;;;5076590;28;20036;-82
2022/09/11 04:05:59;;;;;;;3.58;1.77;;;;;;;;;;5076187;28;20512;-82
2022/09/11 04:08:24;;;;;;;3.55;1.77;;;;;;;;;;5040857;28;20025;-82
2022/09/11 04:10:57;;;;;;;1.80;1.70;;;;;;;;;;5057918;28;20028;-82
2022/09/11 04:13:31;;;;;;;2.25;1.70;;;;;;;;;;5042061;28;20492;-81
2022/09/11 04:16:04;;;;;;;1.50;1.40;;;;;;;;;;5076157;28;20029;-81
2022/09/11 04:18:34;;;;;;;2.28;1.40;;;;;;;;;;5076013;28;20028;-82
2022/09/11 04:21:03;;;;;;;1.58;1.40;;;;;;;;;;5075645;28;20028;-82
2022/09/11 04:23:29;;;;;;;1.75;1.48;;;;;;;;;;5046825;28;20048;-82
2022/09/11 04:25:54;;;;;;;2.17;1.40;;;;;;;;;;5013105;28;20099;-82
2022/09/11 04:28:21;;;;;;;1.52;1.42;;;;;;;;;;5016555;28;20029;-82
2022/09/11 04:30:46;;;;;;;5.45;1.60;;;;;;;;;;5038108;28;20388;-82
2022/09/11 04:33:12;;;;;;;2.10;1.50;;;;;;;;;;5055665;28;20033;-82
2022/09/11 04:35:38;;;;;;;1.50;1.40;;;;;;;;;;5055827;28;20025;-82
2022/09/11 04:38:04;;;;;;;2.47;1.30;;;;;;;;;;5021432;28;20021;-82
2022/09/11 04:40:31;;;;;;;1.92;1.52;;;;;;;;;;5037799;28;20397;-82
2022/09/11 04:42:56;;;;;;;1.52;1.42;;;;;;;;;;5037641;28;20489;-82
2022/09/11 04:45:22;;;;;;;1.60;1.50;;;;;;;;;;5020783;28;20033;-82
2022/09/11 04:47:50;;;;;;;1.65;1.33;;;;;;;;;;5037568;28;20036;-82
2022/09/11 04:50:15;;;;;;;2.15;1.60;;;;;;;;;;5037377;28;20052;-81
2022/09/11 04:52:41;;;;;;;2.10;1.50;;;;;;;;;;5004741;28;20418;-81
2022/09/11 04:55:07;;;;;;;2.08;1.80;;;;;;;;;;5021088;28;20059;-81
2022/09/11 04:57:32;;;;;;;1.75;1.63;;;;;;;;;;5022760;28;20029;-81
2022/09/11 04:59:57;;;;;;;3.42;2.00;;;;;;;;;;5023122;28;20036;-80
2022/09/11 05:02:23;;;;;;;2.35;1.90;;;;;;;;;;5056131;28;20470;-80
2022/09/11 05:04:48;;;;;;;2.20;1.95;;;;;;;;;;5054874;28;20036;-80
2022/09/11 05:07:14;;;;;;;2.47;2.17;;;;;;;;;;5038464;28;20028;-81
2022/09/11 05:09:39;;;;;;;2.83;2.20;;;;;;;;;;5038884;28;20028;-81
2022/09/11 05:12:05;;;;;;;3.35;2.00;;;;;;;;;;5057530;28;20032;-83
2022/09/11 05:14:31;;;;;;;3.80;2.70;;;;;;;;;;5038526;28;20098;-85
2022/09/11 05:16:57;;;;;;;6.13;3.20;;;;;;;;;;5039150;28;20084;-84
2022/09/11 05:19:24;;;;;;;11.05;3.38;;;;;;;;;;5039231;28;20110;-84
2022/09/11 05:21:50;;;;;;;23.50;5.65;;;;;;;;;;5039570;28;20031;-83
2022/09/11 05:24:15;;;;;;;23.13;6.85;;;;;;;;;;5038125;28;20044;-80
2022/09/11 05:26:41;;;;;;;18.65;6.13;;;;;;;;;;5040802;28;20415;-79
2022/09/11 05:29:09;;;;;;;15.02;5.13;;;;;;;;;;5040933;28;20059;-78
2022/09/11 05:31:35;;;;;;;12.18;4.30;;;;;;;;;;5040285;28;20024;-78
2022/09/11 05:34:02;;;;;;;13.32;4.15;;;;;;;;;;5074803;28;20032;-79
2022/09/11 05:36:29;;;;;;;11.57;4.00;;;;;;;;;;5040774;28;20381;-79
2022/09/11 05:38:55;;;;;;;6.15;3.90;;;;;;;;;;5074684;28;20131;-79
2022/09/11 05:41:21;;;;;;;9.23;4.30;;;;;;;;;;5055657;28;20099;-80
2022/09/11 05:43:46;;;;;;;7.18;3.75;;;;;;;;;;5073865;28;20112;-78
2022/09/11 05:46:15;;;;;;;7.25;3.88;;;;;;;;;;5073828;28;20090;-79
2022/09/11 05:48:40;;;;;;;6.72;4.38;;;;;;;;;;5039221;28;20043;-78
2022/09/11 05:51:14;;;;;;;9.98;4.60;;;;;;;;;;5073490;28;20500;-77
2022/09/11 05:53:40;;;;;;;;;;;;;;;;;;5057314;28;20028;-77
2022/09/11 05:56:12;;;;;;;5.85;4.13;;;;;;;;;;5039461;28;19908;-79
2022/09/11 05:58:38;;;;;;;7.40;4.72;;;;;;;;;;5058164;28;20388;-79
2022/09/11 06:01:07;;;;;;;6.68;4.32;;;;;;;;;;5040360;28;20125;-78
2022/09/11 06:03:34;;;;;;;7.30;4.18;;;;;;;;;;5041507;28;20038;-78
2022/09/11 06:06:01;;;;;;;9.73;4.25;;;;;;;;;;5040120;28;20029;-78
2022/09/11 06:08:28;;;;;;;8.05;3.85;;;;;;;;;;5039546;28;20048;-77
2022/09/11 06:10:54;;;;;;;11.32;4.85;;;;;;;;;;5073720;28;20107;-77
2022/09/11 06:13:19;;;;;;;5.20;3.67;;;;;;;;;;5056893;28;20115;-77
2022/09/11 06:15:45;;;;;;;6.03;3.70;;;;;;;;;;5055988;28;20070;-77
2022/09/11 06:18:11;;;;;;;7.03;3.45;;;;;;;;;;5039545;28;20033;-78
2022/09/11 06:20:36;;;;;;;5.00;3.35;;;;;;;;;;5056487;28;20068;-77
2022/09/11 06:23:01;;;;;;;7.28;3.72;;;;;;;;;;5025750;28;20456;-78
2022/09/11 06:25:27;;;;;;;8.57;3.33;;;;;;;;;;5055349;28;20060;-77
2022/09/11 06:27:52;;;;;;;7.65;3.67;;;;;;;;;;5038380;28;20033;-77
2022/09/11 06:30:18;;;;;;;6.18;3.50;;;;;;;;;;5038890;28;20032;-77
2022/09/11 06:32:43;;;;;;;4.13;3.13;;;;;;;;;;5055156;28;20396;-77
2022/09/11 06:35:09;;;;;;;6.47;3.30;;;;;;;;;;5055419;28;20392;-77
2022/09/11 06:37:35;;;;;;;5.57;3.20;;;;;;;;;;5055300;28;20158;-78
2022/09/11 06:40:01;;;;;;;3.85;3.00;;;;;;;;;;5038784;28;20047;-78
2022/09/11 06:42:27;;;;;;;5.20;2.92;;;;;;;;;;5055768;28;20101;-77
2022/09/11 06:44:52;;;;;;;6.85;2.92;;;;;;;;;;5055850;28;20111;-78
2022/09/11 06:47:19;;;;;;;4.93;2.85;;;;;;;;;;5055731;28;20063;-78
2022/09/11 06:49:45;;;;;;;3.22;2.58;;;;;;;;;;5056265;28;20059;-77
2022/09/11 06:52:10;;;;;;;2.70;2.40;;;;;;;;;;5073342;28;20039;-78
2022/09/11 06:54:35;;;;;;;3.50;2.50;;;;;;;;;;5055172;28;20074;-77
2022/09/11 06:57:01;;;;;;;6.47;2.90;;;;;;;;;;5055062;28;20222;-77
2022/09/11 06:59:27;;;;;;;2.88;2.58;;;;;;;;;;5038533;28;20495;-78
2022/09/11 07:01:54;;;;;;;2.63;2.35;;;;;;;;;;5039494;28;20063;-78
2022/09/11 07:04:19;;;;;;;2.75;2.28;;;;;;;;;;5074290;28;20040;-77
2022/09/11 07:06:45;;;;;;;2.25;2.08;;;;;;;;;;5038545;28;20024;-77
2022/09/11 07:09:11;;;;;;;4.25;2.20;;;;;;;;;;5054310;28;20142;-78
2022/09/11 07:11:37;;;;;;;2.95;2.17;;;;;;;;;;5054672;28;20111;-78
2022/09/11 07:14:05;;;;;;;2.60;2.10;;;;;;;;;;5037856;28;20029;-78
2022/09/11 07:16:31;;;;;;;2.25;2.05;;;;;;;;;;5053880;28;20063;-78
2022/09/11 07:18:57;;;;;;;2.00;1.90;;;;;;;;;;5054404;28;20040;-77
2022/09/11 07:21:25;;;;;;;2.00;1.85;;;;;;;;;;5037911;28;20036;-77
2022/09/11 07:23:56;;;;;;;2.47;1.95;;;;;;;;;;5023957;28;20389;-78
2022/09/11 07:26:25;;;;;;;2.22;2.00;;;;;;;;;;5036394;28;20536;-77
2022/09/11 07:28:51;;;;;;;2.20;2.00;;;;;;;;;;5038225;28;20025;-78
2022/09/11 07:31:19;;;;;;;2.45;1.85;;;;;;;;;;5039203;28;20035;-78
2022/09/11 07:33:49;;;;;;;3.03;2.10;;;;;;;;;;5038304;28;20120;-78
2022/09/11 07:36:25;;;;;;;2.00;1.80;;;;;;;;;;5021788;28;20021;-77
2022/09/11 07:38:51;;;;;;;2.15;1.52;;;;;;;;;;5038267;28;20545;-77
2022/09/11 07:41:19;;;;;;;2.85;1.77;;;;;;;;;;5038885;28;20116;-77
2022/09/11 07:43:44;;;;;;;1.90;1.80;;;;;;;;;;5038251;28;20191;-78
2022/09/11 07:46:10;;;;;;;3.03;1.90;;;;;;;;;;5022552;28;20025;-77
2022/09/11 07:48:37;;;;;;;2.10;1.90;;;;;;;;;;5038774;28;20464;-77
2022/09/11 07:51:04;;;;;;;3.05;2.45;;;;;;;;;;5037974;28;20041;-77
2022/09/11 07:53:34;;;;;;;3.22;2.38;;;;;;;;;;5021351;28;20444;-77
2022/09/11 07:56:04;;;;;;;2.58;2.22;;;;;;;;;;5021367;28;20029;-77
2022/09/11 07:58:38;;;;;;;2.95;2.55;;;;;;;;;;5037773;28;20024;-77
2022/09/11 08:01:04;;;;;;;2.90;2.60;;;;;;;;;;5021732;28;20029;-77
2022/09/11 08:03:31;;;;;;;4.78;2.78;;;;;;;;;;5038107;28;20029;-78
2022/09/11 08:06:01;;;;;;;3.00;2.50;;;;;;;;;;5005126;28;20547;-77
2022/09/11 08:08:28;;;;;;;3.25;2.47;;;;;;;;;;5038997;28;20029;-78
2022/09/11 08:11:00;;;;;;;5.18;2.70;;;;;;;;;;5038116;28;20492;-77
2022/09/11 08:13:26;;;;;;;2.30;2.10;;;;;;;;;;5040710;28;20028;-78
2022/09/11 08:15:51;;;;;;;2.05;1.73;;;;;;;;;;5038254;28;20028;-77
2022/09/11 08:18:17;;;;;;;2.55;2.35;;;;;;;;;;5021454;28;20095;-78
2022/09/11 08:20:42;;;;;;;3.22;2.03;;;;;;;;;;5037802;28;20451;-77
2022/09/11 08:23:09;;;;;;;2.58;1.80;;;;;;;;;;5028739;28;20053;-77
2022/09/11 08:25:36;;;;;;;3.08;1.70;;;;;;;;;;5041093;28;20035;-78
2022/09/11 08:28:02;;;;;;;2.38;1.80;;;;;;;;;;5057655;28;20112;-77
2022/09/11 08:30:28;;;;;;;2.53;1.70;;;;;;;;;;5041149;28;20060;-77
2022/09/11 08:32:54;;;;;;;2.47;2.28;;;;;;;;;;5041254;28;20480;-77
2022/09/11 08:35:19;;;;;;;4.10;2.42;;;;;;;;;;5057710;28;20029;-77
2022/09/11 08:37:44;;;;;;;2.83;2.38;;;;;;;;;;5040042;28;20032;-77
2022/09/11 08:40:10;;;;;;;3.72;2.38;;;;;;;;;;5041096;28;20031;-77
2022/09/11 08:42:38;;;;;;;2.70;2.50;;;;;;;;;;5041038;28;20028;-77
2022/09/11 08:45:06;;;;;;;5.80;2.53;;;;;;;;;;5057632;28;20020;-77
2022/09/11 08:47:34;;;;;;;2.92;2.50;;;;;;;;;;5041188;28;20035;-77
2022/09/11 08:50:11;;;;;;;6.85;2.80;;;;;;;;;;5040822;28;20035;-76
2022/09/11 08:52:37;;;;;;;3.40;2.22;;;;;;;;;;5040862;28;20037;-77
2022/09/11 08:55:03;;;;;;;2.92;2.25;;;;;;;;;;5040655;28;20033;-77
2022/09/11 08:58:13;;;;;;;3.70;2.15;;;;;;;;;;5057237;28;20028;-77
2022/09/11 09:00:44;;;;;;;4.35;1.85;;;;;;;;;;5013238;28;20145;-77
2022/09/11 09:03:29;;;;;;;3.40;2.03;;;;;;;;;;5067175;28;20041;-77
2022/09/11 09:06:24;;;;;;;3.28;2.10;;;;;;;;;;5057140;28;20024;-77
2022/09/11 09:09:20;;;;;;;5.05;2.08;;;;;;;;;;5057396;28;20024;-77
2022/09/11 09:11:49;;;;;;;2.58;1.95;;;;;;;;;;5057143;28;20017;-77
2022/09/11 09:14:21;;;;;;;2.78;2.00;;;;;;;;;;5057127;28;20025;-77
2022/09/11 09:16:59;;;;;;;5.35;2.15;;;;;;;;;;5056886;28;20024;-77
2022/09/11 09:19:48;;;;;;;2.58;1.80;;;;;;;;;;5040330;28;20123;-77
2022/09/11 09:22:36;;;;;;;2.05;1.73;;;;;;;;;;5039976;28;20381;-77
2022/09/11 09:25:05;;;;;;;2.03;1.83;;;;;;;;;;5056800;28;20376;-77
2022/09/11 09:27:38;;;;;;;2.83;1.80;;;;;;;;;;5040154;28;20021;-77
2022/09/11 09:30:06;;;;;;;1.67;1.58;;;;;;;;;;5057050;28;20043;-77
2022/09/11 09:32:38;;;;;;;1.65;1.40;;;;;;;;;;5056725;28;20033;-77
2022/09/11 09:35:12;;;;;;;4.38;1.83;;;;;;;;;;5056750;28;20026;-77
2022/09/11 09:37:37;;;;;;;;;;;;;;;;;;5056957;28;20090;-78
2022/09/11 09:40:07;;;;;;;1.53;1.40;;;;;;;;;;5074724;28;20361;-77
2022/09/11 09:42:56;;;;;;;4.20;2.28;;;;;;;;;;5057223;28;20328;-77
2022/09/11 09:45:33;;;;;;;4.30;1.60;;;;;;;;;;5044968;28;20044;-77
2022/09/11 09:48:00;;;;;;;2.47;1.67;;;;;;;;;;5056543;28;20116;-77
2022/09/11 09:50:29;;;;;;;2.70;1.90;;;;;;;;;;5056533;28;20039;-77
2022/09/11 09:53:23;;;;;;;1.67;1.58;;;;;;;;;;5056585;28;20060;-77
2022/09/11 09:55:50;;;;;;;2.47;1.70;;;;;;;;;;5059943;28;20489;-77
2022/09/11 09:58:16;;;;;;;2.05;1.50;;;;;;;;;;5074133;28;20028;-77
2022/09/11 10:00:42;;;;;;;1.70;1.50;;;;;;;;;;5072791;28;20411;-77
2022/09/11 10:03:26;;;;;;;2.72;1.63;;;;;;;;;;5039538;28;20554;-77
2022/09/11 10:05:53;;;;;;;2.15;1.23;;;;;;;;;;5039387;28;20029;-77
2022/09/11 10:08:33;;;;;;;2.20;1.45;;;;;;;;;;5039504;28;20112;-77
2022/09/11 10:10:59;;;;;;;4.05;1.50;;;;;;;;;;5039309;28;20020;-78
2022/09/11 10:13:27;;;;;;;2.53;1.30;;;;;;;;;;5074131;28;20028;-77
2022/09/11 10:15:58;;;;;;;3.03;1.52;;;;;;;;;;5039316;28;20016;-77
2022/09/11 10:18:29;;;;;;;1.77;1.45;;;;;;;;;;5056301;28;20033;-77
2022/09/11 10:21:10;;;;;;;1.50;1.40;;;;;;;;;;5073848;28;20055;-78
2022/09/11 10:24:15;;;;;;;2.65;1.33;;;;;;;;;;5055482;28;20132;-77
2022/09/11 10:26:44;;;;;;;1.48;1.38;;;;;;;;;;5029052;28;20131;-77
2022/09/11 10:29:18;;;;;;;2.25;1.25;;;;;;;;;;5039224;28;20137;-79
2022/09/11 10:31:57;;;;;;;2.22;1.50;;;;;;;;;;5055496;28;20082;-79
2022/09/11 10:34:24;;;;;;;2.05;1.40;;;;;;;;;;5038933;28;20039;-78
2022/09/11 10:37:02;;;;;;;2.30;1.30;;;;;;;;;;5073470;28;20468;-78
2022/09/11 10:39:30;;;;;;;2.45;1.23;;;;;;;;;;5055970;28;20046;-79
2022/09/11 10:41:58;;;;;;;1.67;1.40;;;;;;;;;;5073685;28;20402;-78
2022/09/11 10:44:24;;;;;;;1.98;1.33;;;;;;;;;;5055839;28;20036;-77
2022/09/11 10:47:03;;;;;;;1.75;1.30;;;;;;;;;;5055340;28;20037;-76
2022/09/11 10:49:29;;;;;;;2.30;1.40;;;;;;;;;;5055364;28;20043;-79
2022/09/11 10:52:06;;;;;;;1.38;1.27;;;;;;;;;;5038978;28;20028;-78
2022/09/11 10:54:58;;;;;;;1.67;1.25;;;;;;;;;;5055379;28;20028;-79
2022/09/11 10:58:04;;;;;;;2.38;1.30;;;;;;;;;;5073508;28;20119;-77
2022/09/11 11:00:30;;;;;;;1.52;1.40;;;;;;;;;;4972008;28;20030;-77
2022/09/11 11:03:11;;;;;;;1.30;1.20;;;;;;;;;;4956297;28;20065;-77
2022/09/11 11:06:05;;;;;;;3.25;1.23;;;;;;;;;;4956318;28;20049;-77
2022/09/11 11:08:49;;;;;;;1.08;0.98;;;;;;;;;;4956287;28;20509;-78
2022/09/11 11:11:33;;;;;;;1.63;1.40;;;;;;;;;;4972462;28;20377;-77
2022/09/11 11:14:20;;;;;;;1.20;1.10;;;;;;;;;;4972702;28;20422;-78
2022/09/11 11:17:02;;;;;;;1.70;1.17;;;;;;;;;;4972144;28;20078;-78
2022/09/11 11:20:10;;;;;;;1.42;1.15;;;;;;;;;;4972827;28;20035;-78
2022/09/11 11:22:44;;;;;;;1.40;1.30;;;;;;;;;;4971941;28;20035;-78
2022/09/11 11:25:57;;;;;;;1.50;1.30;;;;;;;;;;4972349;28;20121;-78
2022/09/11 11:28:53;;;;;;;1.20;1.10;;;;;;;;;;4953055;29;20054;-78
2022/09/11 11:31:40;;;;;;;1.30;1.20;;;;;;;;;;4994419;28;20045;-78
2022/09/11 11:34:27;;;;;;;1.38;1.10;;;;;;;;;;4994825;28;20029;-78
2022/09/11 11:37:18;;;;;;;1.40;1.30;;;;;;;;;;5006511;28;20029;-78
2022/09/11 11:40:10;;;;;;;1.20;1.10;;;;;;;;;;5014520;28;20481;-77
2022/09/11 11:42:48;;;;;;;1.55;1.20;;;;;;;;;;5014840;28;20029;-78
2022/09/11 11:45:16;;;;;;;1.27;1.02;;;;;;;;;;5030681;28;20042;-77
2022/09/11 11:47:43;;;;;;;1.65;1.27;;;;;;;;;;5014088;28;20038;-77
2022/09/11 11:50:24;;;;;;;1.20;1.08;;;;;;;;;;5014361;28;20029;-77
2022/09/11 11:52:58;;;;;;;2.00;1.10;;;;;;;;;;5014416;28;20060;-77
2022/09/11 11:55:39;;;;;;;2.08;1.30;;;;;;;;;;5014304;28;20536;-77
2022/09/11 11:58:33;;;;;;;1.10;1.00;;;;;;;;;;5019460;28;20040;-77
2022/09/11 12:01:00;;;;;;;1.15;1.00;;;;;;;;;;5071790;28;20479;-77
2022/09/11 12:04:00;;;;;;;1.30;1.08;;;;;;;;;;5071711;28;20373;-77
2022/09/11 12:06:25;;;;;;;1.50;1.42;;;;;;;;;;5054555;28;20051;-77
2022/09/11 12:08:51;;;;;;;1.60;1.10;;;;;;;;;;5054612;28;20531;-77
2022/09/11 12:11:28;;;;;;;1.05;1.02;;;;;;;;;;5038008;28;20036;-77
2022/09/11 12:13:54;;;;;;;1.67;1.13;;;;;;;;;;5058810;28;20075;-77
2022/09/11 12:16:33;;;;;;;1.35;1.10;;;;;;;;;;5058604;28;20468;-77
2022/09/11 12:19:14;;;;;;;4.22;1.20;;;;;;;;;;5058586;28;20042;-77
2022/09/11 12:21:41;;;;;;;1.10;1.08;;;;;;;;;;5041354;28;20369;-77
2022/09/11 12:24:06;;;;;;;1.40;1.13;;;;;;;;;;5029320;28;20056;-77
2022/09/11 12:26:32;;;;;;;2.05;1.20;;;;;;;;;;5056297;28;20037;-78
2022/09/11 12:29:13;;;;;;;2.45;1.15;;;;;;;;;;5037829;28;20127;-77
2022/09/11 12:31:50;;;;;;;2.42;1.30;;;;;;;;;;5055906;28;20021;-77
2022/09/11 12:34:17;;;;;;;2.10;1.20;;;;;;;;;;5055688;28;20437;-77
2022/09/11 12:36:55;;;;;;;1.10;1.00;;;;;;;;;;5037785;28;20017;-78
2022/09/11 12:39:53;;;;;;;1.65;1.10;;;;;;;;;;5021611;28;20021;-77
2022/09/11 12:42:24;;;;;;;1.20;1.10;;;;;;;;;;5047279;28;20099;-77
2022/09/11 12:44:50;;;;;;;1.70;1.40;;;;;;;;;;5055654;28;20104;-78
2022/09/11 12:47:27;;;;;;;1.10;1.10;;;;;;;;;;5037422;28;20117;-77
2022/09/11 12:49:53;;;;;;;1.77;1.20;;;;;;;;;;5037826;28;20033;-78
2022/09/11 12:52:25;;;;;;;1.40;1.20;;;;;;;;;;5037498;28;20079;-78
2022/09/11 12:54:51;;;;;;;1.75;1.52;;;;;;;;;;5037535;28;20025;-78
2022/09/11 12:57:25;;;;;;;1.00;1.00;;;;;;;;;;5055603;28;20075;-77
2022/09/11 12:59:53;;;;;;;1.23;1.13;;;;;;;;;;5037755;28;20017;-77
2022/09/11 13:02:24;;;;;;;1.77;1.10;;;;;;;;;;5037368;28;20046;-77
2022/09/11 13:04:51;;;;;;;1.30;1.08;;;;;;;;;;5055297;28;20028;-77
2022/09/11 13:07:42;;;;;;;1.20;1.10;;;;;;;;;;5021152;28;20052;-78
2022/09/11 13:10:21;;;;;;;1.52;1.30;;;;;;;;;;5055235;28;20025;-79
2022/09/11 13:12:49;;;;;;;1.50;1.10;;;;;;;;;;5055139;28;20024;-78
2022/09/11 13:15:32;;;;;;;2.60;1.23;;;;;;;;;;5037023;28;20025;-77
2022/09/11 13:17:57;;;;;;;1.17;1.07;;;;;;;;;;5037697;28;20054;-79
2022/09/11 13:20:23;;;;;;;1.00;1.00;;;;;;;;;;5037049;28;20528;-79
2022/09/11 13:22:50;;;;;;;1.52;1.15;;;;;;;;;;5020382;28;20547;-78
2022/09/11 13:25:23;;;;;;;1.20;1.00;;;;;;;;;;5038677;28;20048;-78
2022/09/11 13:27:50;;;;;;;1.20;1.10;;;;;;;;;;5056972;28;20062;-78
2022/09/11 13:30:20;;;;;;;3.67;1.02;;;;;;;;;;5056828;28;20674;-78
2022/09/11 13:32:48;;;;;;;3.10;1.20;;;;;;;;;;5057211;28;20032;-78
2022/09/11 13:35:16;;;;;;;1.30;1.20;;;;;;;;;;5056971;28;20021;-78
2022/09/11 13:37:55;;;;;;;1.48;1.27;;;;;;;;;;5056986;28;20460;-78
2022/09/11 13:40:27;;;;;;;1.40;1.10;;;;;;;;;;5040081;28;20528;-78
2022/09/11 13:42:52;;;;;;;0.93;0.93;;;;;;;;;;5056926;28;20468;-78
2022/09/11 13:45:21;;;;;;;1.50;1.10;;;;;;;;;;5039878;28;20032;-78
2022/09/11 13:47:46;;;;;;;1.13;1.05;;;;;;;;;;5040224;28;20085;-79
2022/09/11 13:50:14;;;;;;;3.35;1.23;;;;;;;;;;5023397;28;20511;-79
2022/09/11 13:52:41;;;;;;;0.98;0.98;;;;;;;;;;5056653;28;20090;-78
2022/09/11 13:55:20;;;;;;;1.73;1.17;;;;;;;;;;5074104;28;20492;-79
2022/09/11 13:58:00;;;;;;;1.00;1.00;;;;;;;;;;5039643;28;20025;-78
2022/09/11 14:00:44;;;;;;;1.67;1.00;;;;;;;;;;5056565;28;20361;-78
2022/09/11 14:03:27;;;;;;;1.20;1.10;;;;;;;;;;5056329;28;20021;-78
2022/09/11 14:05:54;;;;;;;1.92;1.10;;;;;;;;;;5056016;28;20024;-78
2022/09/11 14:08:24;;;;;;;1.70;1.20;;;;;;;;;;5074133;28;20031;-78
2022/09/11 14:10:52;;;;;;;1.13;0.85;;;;;;;;;;5073794;28;20159;-78
2022/09/11 14:13:29;;;;;;;1.08;0.98;;;;;;;;;;5055890;28;20028;-78
2022/09/11 14:15:56;;;;;;;1.30;1.20;;;;;;;;;;5048445;28;20457;-78
2022/09/11 14:18:38;;;;;;;2.22;1.00;;;;;;;;;;5056126;28;20034;-78
2022/09/11 14:21:12;;;;;;;1.55;1.20;;;;;;;;;;5055775;28;20067;-78
2022/09/11 14:23:46;;;;;;;1.95;1.13;;;;;;;;;;5039286;28;20048;-78
2022/09/11 14:26:20;;;;;;;2.05;1.40;;;;;;;;;;5056357;28;20124;-78
2022/09/11 14:28:58;;;;;;;1.20;1.10;;;;;;;;;;5039050;28;20033;-78
2022/09/11 14:31:32;;;;;;;2.55;1.30;;;;;;;;;;5056292;28;20560;-79
2022/09/11 14:34:18;;;;;;;1.95;1.30;;;;;;;;;;5055544;28;20031;-78
2022/09/11 14:36:48;;;;;;;1.00;1.00;;;;;;;;;;5037996;28;20032;-78
2022/09/11 14:39:39;;;;;;;1.33;1.10;;;;;;;;;;5039029;28;20029;-78
2022/09/11 14:42:11;;;;;;;1.23;1.15;;;;;;;;;;5055539;28;20035;-78
2022/09/11 14:44:38;;;;;;;1.23;1.10;;;;;;;;;;5055455;28;20027;-78
2022/09/11 14:47:04;;;;;;;1.45;1.20;;;;;;;;;;5055348;28;20033;-78
2022/09/11 14:49:29;;;;;;;1.27;1.10;;;;;;;;;;5073522;28;20055;-78
2022/09/11 14:51:58;;;;;;;1.55;1.20;;;;;;;;;;5053806;28;20033;-77
2022/09/11 14:54:26;;;;;;;1.58;1.05;;;;;;;;;;5033784;28;20028;-78
2022/09/11 14:56:51;;;;;;;1.83;1.20;;;;;;;;;;5050768;28;20100;-77
2022/09/11 14:59:18;;;;;;;1.13;1.00;;;;;;;;;;5033010;28;20064;-78
2022/09/11 15:01:44;;;;;;;1.42;1.00;;;;;;;;;;5050085;28;20052;-78
2022/09/11 15:04:19;;;;;;;1.35;1.00;;;;;;;;;;5049771;28;20452;-78
2022/09/11 15:06:47;;;;;;;1.35;1.20;;;;;;;;;;5033028;28;20323;-78
2022/09/11 15:09:13;;;;;;;1.42;1.23;;;;;;;;;;5050063;28;20116;-78